sensor_id;sensor_type;location;lat;lon;timestamp;temperature;humidity
15705;DHT22;7952;48.396;12.806;2023-07-20T00:00:52;23.00;43.80
15705;DHT22;7952;48.396;12.806;2023-07-20T00:03:19;23.00;43.80
15705;DHT22;7952;48.396;12.806;2023-07-20T00:05:49;23.00;43.80
15705;DHT22;7952;48.396;12.806;2023-07-20T00:08:15;23.00;43.80
15705;DHT22;7952;48.396;12.806;2023-07-20T00:10:42;23.00;43.80
15705;DHT22;7952;48.396;12.806;2023-07-20T00:13:08;23.00;43.80
15705;DHT22;7952;48.396;12.806;2023-07-20T00:15:34;23.00;43.80
15705;DHT22;7952;48.396;12.806;2023-07-20T00:17:59;23.00;43.90
15705;DHT22;7952;48.396;12.806;2023-07-20T00:20:25;23.00;43.90
15705;DHT22;7952;48.396;12.806;2023-07-20T00:22:51;23.00;43.90
15705;DHT22;7952;48.396;12.806;2023-07-20T00:25:18;23.00;43.90
15705;DHT22;7952;48.396;12.806;2023-07-20T00:27:44;22.90;43.90
15705;DHT22;7952;48.396;12.806;2023-07-20T00:30:10;23.00;44.00
15705;DHT22;7952;48.396;12.806;2023-07-20T00:32:36;22.90;43.90
15705;DHT22;7952;48.396;12.806;2023-07-20T00:35:01;22.90;43.90
15705;DHT22;7952;48.396;12.806;2023-07-20T00:37:27;22.90;44.00
15705;DHT22;7952;48.396;12.806;2023-07-20T00:39:53;22.90;44.00
15705;DHT22;7952;48.396;12.806;2023-07-20T00:42:19;22.90;44.00
15705;DHT22;7952;48.396;12.806;2023-07-20T00:44:44;22.90;44.10
15705;DHT22;7952;48.396;12.806;2023-07-20T00:47:10;22.90;44.10
15705;DHT22;7952;48.396;12.806;2023-07-20T00:49:37;22.90;44.20
15705;DHT22;7952;48.396;12.806;2023-07-20T00:52:03;22.90;44.20
15705;DHT22;7952;48.396;12.806;2023-07-20T00:54:32;22.90;44.20
15705;DHT22;7952;48.396;12.806;2023-07-20T00:56:58;22.90;44.20
15705;DHT22;7952;48.396;12.806;2023-07-20T00:59:26;22.90;44.20
15705;DHT22;7952;48.396;12.806;2023-07-20T01:01:52;22.90;44.30
15705;DHT22;7952;48.396;12.806;2023-07-20T01:04:18;22.90;44.30
15705;DHT22;7952;48.396;12.806;2023-07-20T01:07:00;22.90;44.40
15705;DHT22;7952;48.396;12.806;2023-07-20T01:09:32;22.80;44.30
15705;DHT22;7952;48.396;12.806;2023-07-20T01:12:13;22.80;44.30
15705;DHT22;7952;48.396;12.806;2023-07-20T01:14:42;22.80;44.40
15705;DHT22;7952;48.396;12.806;2023-07-20T01:17:08;22.80;45.00
15705;DHT22;7952;48.396;12.806;2023-07-20T01:19:33;22.80;44.40
15705;DHT22;7952;48.396;12.806;2023-07-20T01:22:23;22.80;44.50
15705;DHT22;7952;48.396;12.806;2023-07-20T01:28:00;22.80;44.60
15705;DHT22;7952;48.396;12.806;2023-07-20T01:33:36;22.80;44.60
15705;DHT22;7952;48.396;12.806;2023-07-20T01:36:03;22.80;44.70
15705;DHT22;7952;48.396;12.806;2023-07-20T01:38:29;22.70;44.70
15705;DHT22;7952;48.396;12.806;2023-07-20T01:40:56;22.70;44.70
15705;DHT22;7952;48.396;12.806;2023-07-20T01:43:22;22.70;44.70
15705;DHT22;7952;48.396;12.806;2023-07-20T01:45:48;22.70;44.70
15705;DHT22;7952;48.396;12.806;2023-07-20T01:48:14;22.70;44.70
15705;DHT22;7952;48.396;12.806;2023-07-20T01:50:40;22.80;44.80
15705;DHT22;7952;48.396;12.806;2023-07-20T01:53:05;22.80;44.80
15705;DHT22;7952;48.396;12.806;2023-07-20T01:55:31;22.80;44.80
15705;DHT22;7952;48.396;12.806;2023-07-20T01:57:58;22.80;44.80
15705;DHT22;7952;48.396;12.806;2023-07-20T02:00:25;22.70;44.70
15705;DHT22;7952;48.396;12.806;2023-07-20T02:02:51;22.70;44.80
15705;DHT22;7952;48.396;12.806;2023-07-20T02:05:17;22.70;44.80
15705;DHT22;7952;48.396;12.806;2023-07-20T02:07:43;22.70;44.80
15705;DHT22;7952;48.396;12.806;2023-07-20T02:10:09;22.70;44.80
15705;DHT22;7952;48.396;12.806;2023-07-20T02:12:35;22.70;44.90
15705;DHT22;7952;48.396;12.806;2023-07-20T02:15:02;22.70;44.90
15705;DHT22;7952;48.396;12.806;2023-07-20T02:17:27;22.70;44.90
15705;DHT22;7952;48.396;12.806;2023-07-20T02:19:53;22.70;44.90
15705;DHT22;7952;48.396;12.806;2023-07-20T02:22:21;22.70;45.00
15705;DHT22;7952;48.396;12.806;2023-07-20T02:24:47;22.70;45.00
15705;DHT22;7952;48.396;12.806;2023-07-20T02:27:12;22.70;45.00
15705;DHT22;7952;48.396;12.806;2023-07-20T02:29:40;22.70;45.00
15705;DHT22;7952;48.396;12.806;2023-07-20T02:32:06;22.70;45.00
15705;DHT22;7952;48.396;12.806;2023-07-20T02:34:32;22.70;45.10
15705;DHT22;7952;48.396;12.806;2023-07-20T02:36:58;22.70;45.10
15705;DHT22;7952;48.396;12.806;2023-07-20T02:39:29;22.70;45.10
15705;DHT22;7952;48.396;12.806;2023-07-20T02:41:56;22.70;45.10
15705;DHT22;7952;48.396;12.806;2023-07-20T02:44:22;22.70;45.10
15705;DHT22;7952;48.396;12.806;2023-07-20T02:46:48;22.70;45.10
15705;DHT22;7952;48.396;12.806;2023-07-20T02:49:15;22.70;45.10
15705;DHT22;7952;48.396;12.806;2023-07-20T02:51:41;22.70;45.20
15705;DHT22;7952;48.396;12.806;2023-07-20T02:54:07;22.60;45.10
15705;DHT22;7952;48.396;12.806;2023-07-20T02:56:34;22.70;45.20
15705;DHT22;7952;48.396;12.806;2023-07-20T02:59:01;22.70;45.20
15705;DHT22;7952;48.396;12.806;2023-07-20T03:01:27;22.60;45.20
15705;DHT22;7952;48.396;12.806;2023-07-20T03:03:54;22.60;45.20
15705;DHT22;7952;48.396;12.806;2023-07-20T03:06:20;22.60;45.30
15705;DHT22;7952;48.396;12.806;2023-07-20T03:08:46;22.60;45.30
15705;DHT22;7952;48.396;12.806;2023-07-20T03:11:19;22.60;45.30
15705;DHT22;7952;48.396;12.806;2023-07-20T03:13:46;22.60;45.40
15705;DHT22;7952;48.396;12.806;2023-07-20T03:16:13;22.60;45.50
15705;DHT22;7952;48.396;12.806;2023-07-20T03:18:41;22.50;45.40
15705;DHT22;7952;48.396;12.806;2023-07-20T03:21:08;22.50;45.40
15705;DHT22;7952;48.396;12.806;2023-07-20T03:23:34;22.50;45.50
15705;DHT22;7952;48.396;12.806;2023-07-20T03:26:00;22.50;45.50
15705;DHT22;7952;48.396;12.806;2023-07-20T03:28:26;22.50;45.60
15705;DHT22;7952;48.396;12.806;2023-07-20T03:30:58;22.50;45.60
15705;DHT22;7952;48.396;12.806;2023-07-20T03:33:29;22.50;45.60
15705;DHT22;7952;48.396;12.806;2023-07-20T03:35:55;22.50;45.70
15705;DHT22;7952;48.396;12.806;2023-07-20T03:38:22;22.40;45.70
15705;DHT22;7952;48.396;12.806;2023-07-20T03:40:52;22.40;45.70
15705;DHT22;7952;48.396;12.806;2023-07-20T03:43:18;22.40;45.80
15705;DHT22;7952;48.396;12.806;2023-07-20T03:45:44;22.40;45.80
15705;DHT22;7952;48.396;12.806;2023-07-20T03:48:11;22.40;45.80
15705;DHT22;7952;48.396;12.806;2023-07-20T03:50:38;22.40;45.80
15705;DHT22;7952;48.396;12.806;2023-07-20T03:53:03;22.40;45.80
15705;DHT22;7952;48.396;12.806;2023-07-20T03:55:29;22.40;45.80
15705;DHT22;7952;48.396;12.806;2023-07-20T03:57:55;22.40;45.80
15705;DHT22;7952;48.396;12.806;2023-07-20T04:00:21;22.40;45.80
15705;DHT22;7952;48.396;12.806;2023-07-20T04:02:46;22.40;46.00
15705;DHT22;7952;48.396;12.806;2023-07-20T04:05:12;22.30;45.80
15705;DHT22;7952;48.396;12.806;2023-07-20T04:07:38;22.30;45.90
15705;DHT22;7952;48.396;12.806;2023-07-20T04:10:04;22.30;46.00
15705;DHT22;7952;48.396;12.806;2023-07-20T04:12:30;22.20;46.00
15705;DHT22;7952;48.396;12.806;2023-07-20T04:14:56;22.20;46.10
15705;DHT22;7952;48.396;12.806;2023-07-20T04:17:22;22.20;46.20
15705;DHT22;7952;48.396;12.806;2023-07-20T04:19:48;22.10;46.20
15705;DHT22;7952;48.396;12.806;2023-07-20T04:22:13;22.10;46.30
15705;DHT22;7952;48.396;12.806;2023-07-20T04:24:42;22.10;46.40
15705;DHT22;7952;48.396;12.806;2023-07-20T04:27:08;22.00;46.40
15705;DHT22;7952;48.396;12.806;2023-07-20T04:29:34;22.00;46.50
15705;DHT22;7952;48.396;12.806;2023-07-20T04:31:59;22.00;46.50
15705;DHT22;7952;48.396;12.806;2023-07-20T04:34:25;22.10;46.60
15705;DHT22;7952;48.396;12.806;2023-07-20T04:36:51;22.10;46.60
15705;DHT22;7952;48.396;12.806;2023-07-20T04:39:17;22.10;46.60
15705;DHT22;7952;48.396;12.806;2023-07-20T04:41:43;22.10;46.50
15705;DHT22;7952;48.396;12.806;2023-07-20T04:44:08;22.20;46.60
15705;DHT22;7952;48.396;12.806;2023-07-20T04:46:34;22.20;46.60
15705;DHT22;7952;48.396;12.806;2023-07-20T04:49:00;22.20;46.60
15705;DHT22;7952;48.396;12.806;2023-07-20T04:51:27;22.30;46.60
15705;DHT22;7952;48.396;12.806;2023-07-20T04:53:56;22.30;46.60
15705;DHT22;7952;48.396;12.806;2023-07-20T04:56:22;22.30;46.60
15705;DHT22;7952;48.396;12.806;2023-07-20T04:58:49;22.30;46.70
15705;DHT22;7952;48.396;12.806;2023-07-20T05:01:14;22.30;46.70
15705;DHT22;7952;48.396;12.806;2023-07-20T05:03:40;22.20;46.70
15705;DHT22;7952;48.396;12.806;2023-07-20T05:06:06;22.20;46.80
15705;DHT22;7952;48.396;12.806;2023-07-20T05:08:31;22.20;46.90
15705;DHT22;7952;48.396;12.806;2023-07-20T05:10:57;22.20;46.90
15705;DHT22;7952;48.396;12.806;2023-07-20T05:13:23;22.20;47.00
15705;DHT22;7952;48.396;12.806;2023-07-20T05:15:53;22.20;47.00
15705;DHT22;7952;48.396;12.806;2023-07-20T05:18:19;22.20;47.00
15705;DHT22;7952;48.396;12.806;2023-07-20T05:20:49;22.20;47.00
15705;DHT22;7952;48.396;12.806;2023-07-20T05:23:18;22.20;47.00
15705;DHT22;7952;48.396;12.806;2023-07-20T05:25:45;22.20;47.00
15705;DHT22;7952;48.396;12.806;2023-07-20T05:28:11;22.20;47.10
15705;DHT22;7952;48.396;12.806;2023-07-20T05:30:37;22.20;47.10
15705;DHT22;7952;48.396;12.806;2023-07-20T05:33:02;22.30;47.20
15705;DHT22;7952;48.396;12.806;2023-07-20T05:35:28;22.30;47.20
15705;DHT22;7952;48.396;12.806;2023-07-20T05:37:54;22.30;47.20
15705;DHT22;7952;48.396;12.806;2023-07-20T05:40:20;22.30;47.20
15705;DHT22;7952;48.396;12.806;2023-07-20T05:42:47;22.40;47.30
15705;DHT22;7952;48.396;12.806;2023-07-20T05:45:14;22.40;47.20
15705;DHT22;7952;48.396;12.806;2023-07-20T05:47:42;22.50;47.30
15705;DHT22;7952;48.396;12.806;2023-07-20T05:50:08;22.60;47.30
15705;DHT22;7952;48.396;12.806;2023-07-20T05:52:34;22.60;47.30
15705;DHT22;7952;48.396;12.806;2023-07-20T05:55:00;22.70;47.30
15705;DHT22;7952;48.396;12.806;2023-07-20T05:57:26;22.70;47.30
15705;DHT22;7952;48.396;12.806;2023-07-20T05:59:51;22.80;47.30
15705;DHT22;7952;48.396;12.806;2023-07-20T06:02:17;22.80;47.30
15705;DHT22;7952;48.396;12.806;2023-07-20T06:04:43;22.80;47.20
15705;DHT22;7952;48.396;12.806;2023-07-20T06:07:08;22.90;47.30
15705;DHT22;7952;48.396;12.806;2023-07-20T06:09:34;22.90;47.20
15705;DHT22;7952;48.396;12.806;2023-07-20T06:12:00;22.90;47.10
15705;DHT22;7952;48.396;12.806;2023-07-20T06:14:26;23.00;47.20
15705;DHT22;7952;48.396;12.806;2023-07-20T06:16:52;23.00;47.10
15705;DHT22;7952;48.396;12.806;2023-07-20T06:19:17;23.10;47.20
15705;DHT22;7952;48.396;12.806;2023-07-20T06:21:44;23.10;47.10
15705;DHT22;7952;48.396;12.806;2023-07-20T06:24:10;23.20;47.10
15705;DHT22;7952;48.396;12.806;2023-07-20T06:26:35;23.20;47.00
15705;DHT22;7952;48.396;12.806;2023-07-20T06:29:05;23.30;47.00
15705;DHT22;7952;48.396;12.806;2023-07-20T06:31:32;23.30;47.00
15705;DHT22;7952;48.396;12.806;2023-07-20T06:33:58;23.40;46.90
15705;DHT22;7952;48.396;12.806;2023-07-20T06:36:24;23.50;47.00
15705;DHT22;7952;48.396;12.806;2023-07-20T06:38:51;23.50;46.80
15705;DHT22;7952;48.396;12.806;2023-07-20T06:41:17;23.50;46.70
15705;DHT22;7952;48.396;12.806;2023-07-20T06:43:43;23.60;46.80
15705;DHT22;7952;48.396;12.806;2023-07-20T06:46:09;23.70;46.80
15705;DHT22;7952;48.396;12.806;2023-07-20T06:48:35;23.70;46.70
15705;DHT22;7952;48.396;12.806;2023-07-20T06:51:00;23.80;46.70
15705;DHT22;7952;48.396;12.806;2023-07-20T06:53:26;23.90;46.70
15705;DHT22;7952;48.396;12.806;2023-07-20T06:55:52;23.90;46.60
15705;DHT22;7952;48.396;12.806;2023-07-20T06:58:18;24.00;46.60
15705;DHT22;7952;48.396;12.806;2023-07-20T07:00:44;24.10;46.60
15705;DHT22;7952;48.396;12.806;2023-07-20T07:03:10;24.20;46.50
15705;DHT22;7952;48.396;12.806;2023-07-20T07:05:37;24.30;46.50
15705;DHT22;7952;48.396;12.806;2023-07-20T07:08:06;24.40;46.50
15705;DHT22;7952;48.396;12.806;2023-07-20T07:10:32;24.50;46.60
15705;DHT22;7952;48.396;12.806;2023-07-20T07:12:58;24.60;46.40
15705;DHT22;7952;48.396;12.806;2023-07-20T07:15:23;24.80;46.40
15705;DHT22;7952;48.396;12.806;2023-07-20T07:17:49;25.00;46.30
15705;DHT22;7952;48.396;12.806;2023-07-20T07:20:16;25.20;46.00
15705;DHT22;7952;48.396;12.806;2023-07-20T07:22:42;25.40;45.90
15705;DHT22;7952;48.396;12.806;2023-07-20T07:25:09;25.60;45.70
15705;DHT22;7952;48.396;12.806;2023-07-20T07:27:36;25.80;45.50
15705;DHT22;7952;48.396;12.806;2023-07-20T07:30:02;26.00;45.30
15705;DHT22;7952;48.396;12.806;2023-07-20T07:32:28;26.20;45.20
15705;DHT22;7952;48.396;12.806;2023-07-20T07:34:54;26.40;45.10
15705;DHT22;7952;48.396;12.806;2023-07-20T07:37:20;26.60;45.00
15705;DHT22;7952;48.396;12.806;2023-07-20T07:39:46;26.80;44.80
15705;DHT22;7952;48.396;12.806;2023-07-20T07:42:12;26.90;44.50
15705;DHT22;7952;48.396;12.806;2023-07-20T07:44:38;27.00;44.40
15705;DHT22;7952;48.396;12.806;2023-07-20T07:47:04;27.00;44.30
15705;DHT22;7952;48.396;12.806;2023-07-20T07:49:30;27.00;44.30
15705;DHT22;7952;48.396;12.806;2023-07-20T07:51:56;27.00;44.20
15705;DHT22;7952;48.396;12.806;2023-07-20T07:54:22;27.00;44.10
15705;DHT22;7952;48.396;12.806;2023-07-20T07:56:48;27.00;44.10
15705;DHT22;7952;48.396;12.806;2023-07-20T07:59:14;26.90;44.10
15705;DHT22;7952;48.396;12.806;2023-07-20T08:01:39;26.90;44.20
15705;DHT22;7952;48.396;12.806;2023-07-20T08:04:05;26.90;44.20
15705;DHT22;7952;48.396;12.806;2023-07-20T08:06:31;26.90;44.20
15705;DHT22;7952;48.396;12.806;2023-07-20T08:08:57;26.90;44.20
15705;DHT22;7952;48.396;12.806;2023-07-20T08:11:23;26.90;44.20
15705;DHT22;7952;48.396;12.806;2023-07-20T08:13:49;27.00;44.30
15705;DHT22;7952;48.396;12.806;2023-07-20T08:16:15;27.10;44.10
15705;DHT22;7952;48.396;12.806;2023-07-20T08:18:41;27.10;44.00
15705;DHT22;7952;48.396;12.806;2023-07-20T08:21:09;27.20;44.00
15705;DHT22;7952;48.396;12.806;2023-07-20T08:23:38;27.30;44.00
15705;DHT22;7952;48.396;12.806;2023-07-20T08:26:04;27.40;43.90
15705;DHT22;7952;48.396;12.806;2023-07-20T08:28:30;27.40;43.70
15705;DHT22;7952;48.396;12.806;2023-07-20T08:30:55;27.50;43.60
15705;DHT22;7952;48.396;12.806;2023-07-20T08:33:21;27.60;43.60
15705;DHT22;7952;48.396;12.806;2023-07-20T08:35:47;27.60;43.50
15705;DHT22;7952;48.396;12.806;2023-07-20T08:38:13;27.80;43.50
15705;DHT22;7952;48.396;12.806;2023-07-20T08:40:40;27.90;43.50
15705;DHT22;7952;48.396;12.806;2023-07-20T08:43:06;28.00;43.40
15705;DHT22;7952;48.396;12.806;2023-07-20T08:45:36;28.20;43.30
15705;DHT22;7952;48.396;12.806;2023-07-20T08:48:05;28.30;43.80
15705;DHT22;7952;48.396;12.806;2023-07-20T08:50:32;28.40;43.00
15705;DHT22;7952;48.396;12.806;2023-07-20T08:52:59;28.60;42.90
15705;DHT22;7952;48.396;12.806;2023-07-20T08:55:26;28.70;42.70
15705;DHT22;7952;48.396;12.806;2023-07-20T08:57:57;28.80;42.60
15705;DHT22;7952;48.396;12.806;2023-07-20T09:00:24;29.00;42.50
15705;DHT22;7952;48.396;12.806;2023-07-20T09:02:52;29.10;42.40
15705;DHT22;7952;48.396;12.806;2023-07-20T09:05:19;29.30;42.30
15705;DHT22;7952;48.396;12.806;2023-07-20T09:07:44;29.40;42.00
15705;DHT22;7952;48.396;12.806;2023-07-20T09:10:10;29.60;42.00
15705;DHT22;7952;48.396;12.806;2023-07-20T09:12:38;29.70;41.70
15705;DHT22;7952;48.396;12.806;2023-07-20T09:15:06;29.80;41.60
15705;DHT22;7952;48.396;12.806;2023-07-20T09:17:32;30.00;41.40
15705;DHT22;7952;48.396;12.806;2023-07-20T09:19:58;30.00;41.20
15705;DHT22;7952;48.396;12.806;2023-07-20T09:22:30;29.90;41.20
15705;DHT22;7952;48.396;12.806;2023-07-20T09:24:57;30.00;41.30
15705;DHT22;7952;48.396;12.806;2023-07-20T09:27:38;30.00;41.20
15705;DHT22;7952;48.396;12.806;2023-07-20T09:30:07;30.00;41.10
15705;DHT22;7952;48.396;12.806;2023-07-20T09:32:47;30.00;40.90
15705;DHT22;7952;48.396;12.806;2023-07-20T09:35:20;29.90;40.80
15705;DHT22;7952;48.396;12.806;2023-07-20T09:38:04;29.90;41.00
15705;DHT22;7952;48.396;12.806;2023-07-20T09:40:30;29.90;40.90
15705;DHT22;7952;48.396;12.806;2023-07-20T09:42:56;30.00;40.90
15705;DHT22;7952;48.396;12.806;2023-07-20T09:45:42;30.00;40.80
15705;DHT22;7952;48.396;12.806;2023-07-20T09:48:09;30.10;40.60
15705;DHT22;7952;48.396;12.806;2023-07-20T09:50:51;30.10;40.40
15705;DHT22;7952;48.396;12.806;2023-07-20T09:53:18;30.10;40.40
15705;DHT22;7952;48.396;12.806;2023-07-20T09:55:47;30.00;40.30
15705;DHT22;7952;48.396;12.806;2023-07-20T09:58:14;30.10;40.40
15705;DHT22;7952;48.396;12.806;2023-07-20T10:00:40;30.10;40.40
15705;DHT22;7952;48.396;12.806;2023-07-20T10:03:10;30.20;40.20
15705;DHT22;7952;48.396;12.806;2023-07-20T10:05:42;30.30;40.10
15705;DHT22;7952;48.396;12.806;2023-07-20T10:08:11;30.30;40.10
15705;DHT22;7952;48.396;12.806;2023-07-20T10:10:40;30.40;40.10
15705;DHT22;7952;48.396;12.806;2023-07-20T10:13:09;30.40;39.90
15705;DHT22;7952;48.396;12.806;2023-07-20T10:15:49;30.50;39.90
15705;DHT22;7952;48.396;12.806;2023-07-20T10:18:38;30.60;39.80
15705;DHT22;7952;48.396;12.806;2023-07-20T10:21:07;30.70;39.70
15705;DHT22;7952;48.396;12.806;2023-07-20T10:23:35;30.70;39.50
15705;DHT22;7952;48.396;12.806;2023-07-20T10:26:01;30.80;39.40
15705;DHT22;7952;48.396;12.806;2023-07-20T10:28:28;30.90;39.30
15705;DHT22;7952;48.396;12.806;2023-07-20T10:30:54;31.00;39.20
15705;DHT22;7952;48.396;12.806;2023-07-20T10:33:20;31.00;39.00
15705;DHT22;7952;48.396;12.806;2023-07-20T10:35:54;31.00;38.80
15705;DHT22;7952;48.396;12.806;2023-07-20T10:41:20;31.00;38.80
15705;DHT22;7952;48.396;12.806;2023-07-20T10:43:47;31.10;38.80
15705;DHT22;7952;48.396;12.806;2023-07-20T10:46:14;31.00;38.60
15705;DHT22;7952;48.396;12.806;2023-07-20T10:48:59;31.00;38.70
15705;DHT22;7952;48.396;12.806;2023-07-20T10:51:25;31.00;38.80
15705;DHT22;7952;48.396;12.806;2023-07-20T10:53:51;31.00;38.70
15705;DHT22;7952;48.396;12.806;2023-07-20T10:56:23;31.00;38.50
15705;DHT22;7952;48.396;12.806;2023-07-20T10:58:56;30.90;38.40
15705;DHT22;7952;48.396;12.806;2023-07-20T11:01:28;30.70;38.50
15705;DHT22;7952;48.396;12.806;2023-07-20T11:03:58;30.60;38.60
15705;DHT22;7952;48.396;12.806;2023-07-20T11:09:13;30.50;38.60
15705;DHT22;7952;48.396;12.806;2023-07-20T11:11:46;30.60;38.80
15705;DHT22;7952;48.396;12.806;2023-07-20T11:14:25;30.60;38.70
15705;DHT22;7952;48.396;12.806;2023-07-20T11:16:53;30.80;38.70
15705;DHT22;7952;48.396;12.806;2023-07-20T11:19:26;30.90;38.50
15705;DHT22;7952;48.396;12.806;2023-07-20T11:21:56;31.00;38.40
15705;DHT22;7952;48.396;12.806;2023-07-20T11:24:23;31.00;38.30
15705;DHT22;7952;48.396;12.806;2023-07-20T11:26:53;31.00;38.30
15705;DHT22;7952;48.396;12.806;2023-07-20T11:29:23;31.10;38.30
15705;DHT22;7952;48.396;12.806;2023-07-20T11:31:50;31.10;38.10
15705;DHT22;7952;48.396;12.806;2023-07-20T11:34:18;31.10;38.10
15705;DHT22;7952;48.396;12.806;2023-07-20T11:36:45;31.00;38.20
15705;DHT22;7952;48.396;12.806;2023-07-20T11:39:13;31.10;38.20
15705;DHT22;7952;48.396;12.806;2023-07-20T11:41:46;31.10;38.20
15705;DHT22;7952;48.396;12.806;2023-07-20T11:44:12;31.20;38.10
15705;DHT22;7952;48.396;12.806;2023-07-20T11:46:41;31.20;38.10
15705;DHT22;7952;48.396;12.806;2023-07-20T11:49:11;31.30;38.00
15705;DHT22;7952;48.396;12.806;2023-07-20T11:51:39;31.40;37.90
15705;DHT22;7952;48.396;12.806;2023-07-20T11:54:07;31.40;37.80
15705;DHT22;7952;48.396;12.806;2023-07-20T11:56:34;31.30;37.90
15705;DHT22;7952;48.396;12.806;2023-07-20T11:59:00;31.30;37.90
15705;DHT22;7952;48.396;12.806;2023-07-20T12:01:28;31.20;37.80
15705;DHT22;7952;48.396;12.806;2023-07-20T12:03:59;31.20;37.80
15705;DHT22;7952;48.396;12.806;2023-07-20T12:06:28;31.10;37.80
15705;DHT22;7952;48.396;12.806;2023-07-20T12:08:58;31.00;37.90
15705;DHT22;7952;48.396;12.806;2023-07-20T12:11:38;31.00;37.90
15705;DHT22;7952;48.396;12.806;2023-07-20T12:14:08;30.90;37.80
15705;DHT22;7952;48.396;12.806;2023-07-20T12:16:35;30.90;37.80
15705;DHT22;7952;48.396;12.806;2023-07-20T12:21:28;30.80;37.80
15705;DHT22;7952;48.396;12.806;2023-07-20T12:23:56;30.70;37.80
15705;DHT22;7952;48.396;12.806;2023-07-20T12:26:23;30.70;37.90
15705;DHT22;7952;48.396;12.806;2023-07-20T12:28:49;30.60;37.90
15705;DHT22;7952;48.396;12.806;2023-07-20T12:31:15;30.50;37.90
15705;DHT22;7952;48.396;12.806;2023-07-20T12:33:41;30.40;37.90
15705;DHT22;7952;48.396;12.806;2023-07-20T12:36:08;30.30;38.00
15705;DHT22;7952;48.396;12.806;2023-07-20T12:38:34;30.30;38.10
15705;DHT22;7952;48.396;12.806;2023-07-20T12:41:01;30.20;38.20
15705;DHT22;7952;48.396;12.806;2023-07-20T12:43:27;30.20;38.30
15705;DHT22;7952;48.396;12.806;2023-07-20T12:45:53;30.30;38.30
15705;DHT22;7952;48.396;12.806;2023-07-20T12:48:20;30.40;38.20
15705;DHT22;7952;48.396;12.806;2023-07-20T12:50:46;30.50;38.10
15705;DHT22;7952;48.396;12.806;2023-07-20T12:53:12;30.50;38.10
15705;DHT22;7952;48.396;12.806;2023-07-20T12:55:38;30.60;37.90
15705;DHT22;7952;48.396;12.806;2023-07-20T12:58:05;30.60;37.90
15705;DHT22;7952;48.396;12.806;2023-07-20T13:00:31;30.70;37.90
15705;DHT22;7952;48.396;12.806;2023-07-20T13:02:57;30.70;37.80
15705;DHT22;7952;48.396;12.806;2023-07-20T13:05:23;30.70;37.80
15705;DHT22;7952;48.396;12.806;2023-07-20T13:07:49;30.70;37.70
15705;DHT22;7952;48.396;12.806;2023-07-20T13:10:15;30.70;37.70
15705;DHT22;7952;48.396;12.806;2023-07-20T13:12:41;30.70;37.70
15705;DHT22;7952;48.396;12.806;2023-07-20T13:15:08;30.70;37.60
15705;DHT22;7952;48.396;12.806;2023-07-20T13:17:38;30.60;37.40
15705;DHT22;7952;48.396;12.806;2023-07-20T13:20:05;30.60;37.50
15705;DHT22;7952;48.396;12.806;2023-07-20T13:22:32;30.60;37.60
15705;DHT22;7952;48.396;12.806;2023-07-20T13:24:58;30.50;37.50
15705;DHT22;7952;48.396;12.806;2023-07-20T13:27:24;30.50;37.60
15705;DHT22;7952;48.396;12.806;2023-07-20T13:29:51;30.40;38.10
15705;DHT22;7952;48.396;12.806;2023-07-20T13:32:17;30.40;37.60
15705;DHT22;7952;48.396;12.806;2023-07-20T13:34:44;30.40;37.70
15705;DHT22;7952;48.396;12.806;2023-07-20T13:37:10;30.40;37.70
15705;DHT22;7952;48.396;12.806;2023-07-20T13:39:37;30.40;37.70
15705;DHT22;7952;48.396;12.806;2023-07-20T13:42:03;30.40;37.50
15705;DHT22;7952;48.396;12.806;2023-07-20T13:44:31;30.40;37.60
15705;DHT22;7952;48.396;12.806;2023-07-20T13:46:57;30.50;37.60
15705;DHT22;7952;48.396;12.806;2023-07-20T13:49:23;30.50;37.40
15705;DHT22;7952;48.396;12.806;2023-07-20T13:51:49;30.50;37.30
15705;DHT22;7952;48.396;12.806;2023-07-20T13:54:14;30.50;37.20
15705;DHT22;7952;48.396;12.806;2023-07-20T13:56:40;30.50;37.30
15705;DHT22;7952;48.396;12.806;2023-07-20T13:59:06;30.40;37.30
15705;DHT22;7952;48.396;12.806;2023-07-20T14:01:32;30.30;37.40
15705;DHT22;7952;48.396;12.806;2023-07-20T14:04:01;30.30;37.50
15705;DHT22;7952;48.396;12.806;2023-07-20T14:06:31;30.30;37.50
15705;DHT22;7952;48.396;12.806;2023-07-20T14:08:57;30.40;37.60
15705;DHT22;7952;48.396;12.806;2023-07-20T14:11:23;30.40;37.60
15705;DHT22;7952;48.396;12.806;2023-07-20T14:13:50;30.40;37.60
15705;DHT22;7952;48.396;12.806;2023-07-20T14:16:17;30.30;37.50
15705;DHT22;7952;48.396;12.806;2023-07-20T14:18:42;30.30;37.50
15705;DHT22;7952;48.396;12.806;2023-07-20T14:21:08;30.20;37.50
15705;DHT22;7952;48.396;12.806;2023-07-20T14:23:34;30.10;37.50
15705;DHT22;7952;48.396;12.806;2023-07-20T14:26:01;30.00;37.70
15705;DHT22;7952;48.396;12.806;2023-07-20T14:28:31;29.90;37.80
15705;DHT22;7952;48.396;12.806;2023-07-20T14:30:57;29.80;37.90
15705;DHT22;7952;48.396;12.806;2023-07-20T14:33:23;29.70;37.90
15705;DHT22;7952;48.396;12.806;2023-07-20T14:35:48;29.70;38.00
15705;DHT22;7952;48.396;12.806;2023-07-20T14:38:14;29.80;38.00
15705;DHT22;7952;48.396;12.806;2023-07-20T14:40:40;29.70;38.00
15705;DHT22;7952;48.396;12.806;2023-07-20T14:43:06;29.80;38.10
15705;DHT22;7952;48.396;12.806;2023-07-20T14:45:32;29.80;38.00
15705;DHT22;7952;48.396;12.806;2023-07-20T14:47:58;29.80;37.90
15705;DHT22;7952;48.396;12.806;2023-07-20T14:50:24;29.80;37.90
15705;DHT22;7952;48.396;12.806;2023-07-20T14:52:50;29.80;37.90
15705;DHT22;7952;48.396;12.806;2023-07-20T14:55:16;29.80;37.90
15705;DHT22;7952;48.396;12.806;2023-07-20T14:57:42;29.90;37.90
15705;DHT22;7952;48.396;12.806;2023-07-20T15:00:09;29.90;37.90
15705;DHT22;7952;48.396;12.806;2023-07-20T15:02:37;29.90;37.80
15705;DHT22;7952;48.396;12.806;2023-07-20T15:05:06;29.80;37.80
15705;DHT22;7952;48.396;12.806;2023-07-20T15:07:32;29.90;37.90
15705;DHT22;7952;48.396;12.806;2023-07-20T15:09:57;29.80;37.80
15705;DHT22;7952;48.396;12.806;2023-07-20T15:12:23;29.80;37.90
15705;DHT22;7952;48.396;12.806;2023-07-20T15:15:11;29.80;37.90
15705;DHT22;7952;48.396;12.806;2023-07-20T15:17:38;29.70;37.80
15705;DHT22;7952;48.396;12.806;2023-07-20T15:20:06;29.60;37.90
15705;DHT22;7952;48.396;12.806;2023-07-20T15:22:33;29.50;37.90
15705;DHT22;7952;48.396;12.806;2023-07-20T15:24:59;29.30;38.00
15705;DHT22;7952;48.396;12.806;2023-07-20T15:27:26;29.30;38.10
15705;DHT22;7952;48.396;12.806;2023-07-20T15:29:51;29.30;38.20
15705;DHT22;7952;48.396;12.806;2023-07-20T15:32:18;29.30;38.20
15705;DHT22;7952;48.396;12.806;2023-07-20T15:34:44;29.30;38.20
15705;DHT22;7952;48.396;12.806;2023-07-20T15:37:11;29.30;38.20
15705;DHT22;7952;48.396;12.806;2023-07-20T15:39:37;29.20;38.10
15705;DHT22;7952;48.396;12.806;2023-07-20T15:42:03;29.20;38.10
15705;DHT22;7952;48.396;12.806;2023-07-20T15:44:29;29.10;38.10